Time;durP1;ratioP1;P1;durP2;ratioP2;P2;SDS_P1;SDS_P2;PMS_P1;PMS_P2;Temp;Humidity;BMP_temperature;BMP_pressure;BME280_temperature;BME280_humidity;BME280_pressure;Samples;Min_cycle;Max_cycle;Signal;HPM_P1;HPM_P2
2021/05/04 06:14:04;;;;;;;4.45;2.40;;;10.60;92.20;;;;;;6165529;22;883134;-67
2021/05/04 06:16:29;;;;;;;8.82;5.55;;;10.70;91.90;;;;;;6216182;23;20333;-70
2021/05/04 06:18:55;;;;;;;8.73;2.13;;;10.80;91.90;;;;;;6215201;23;20325;-67
2021/05/04 06:21:21;;;;;;;5.43;2.00;;;10.80;91.80;;;;;;6208612;23;20139;-66
2021/05/04 06:23:54;;;;;;;5.32;2.00;;;10.90;91.70;;;;;;6212806;23;20004;-71
2021/05/04 06:26:22;;;;;;;7.15;2.00;;;10.90;91.70;;;;;;6215512;23;20004;-69
2021/05/04 06:28:48;;;;;;;4.45;1.77;;;10.90;91.70;;;;;;6212858;23;20035;-68
2021/05/04 06:31:19;;;;;;;5.20;3.45;;;11.00;91.80;;;;;;6215205;23;20009;-67
2021/05/04 06:33:46;;;;;;;3.25;1.58;;;11.00;91.90;;;;;;6214878;23;20016;-66
2021/05/04 06:36:12;;;;;;;2.78;1.88;;;11.00;91.90;;;;;;6213225;23;20005;-67
2021/05/04 06:38:38;;;;;;;3.13;1.70;;;11.00;92.10;;;;;;6213932;23;20004;-67
2021/05/04 06:41:03;;;;;;;4.78;1.92;;;11.00;92.20;;;;;;6215284;23;20001;-67
2021/05/04 06:43:29;;;;;;;5.55;2.00;;;11.00;92.10;;;;;;6214697;23;20005;-68
2021/05/04 06:45:55;;;;;;;6.55;1.90;;;11.00;92.20;;;;;;6215179;23;19996;-68
2021/05/04 06:48:21;;;;;;;12.77;7.95;;;10.90;92.20;;;;;;6215102;23;20007;-66
2021/05/04 06:50:47;;;;;;;2.65;1.50;;;11.00;92.40;;;;;;6214516;23;19996;-66
2021/05/04 06:53:12;;;;;;;4.70;2.13;;;11.00;92.20;;;;;;6215114;23;20035;-66
2021/05/04 06:55:38;;;;;;;5.22;1.70;;;11.10;92.10;;;;;;6212683;23;20000;-67
2021/05/04 06:58:04;;;;;;;7.30;2.08;;;11.40;91.70;;;;;;6215317;23;20007;-69
2021/05/04 07:00:29;;;;;;;7.50;2.28;;;11.50;91.20;;;;;;6215570;23;20001;-67
2021/05/04 07:02:55;;;;;;;6.10;2.17;;;11.70;90.90;;;;;;6214178;23;20483;-66
2021/05/04 07:05:21;;;;;;;9.00;2.50;;;11.70;90.80;;;;;;6213954;23;20001;-67
2021/05/04 07:07:47;;;;;;;8.35;2.60;;;11.80;90.70;;;;;;6215162;23;20390;-67
2021/05/04 07:10:13;;;;;;;14.80;6.40;;;11.90;90.60;;;;;;6212666;23;20015;-67
2021/05/04 07:12:42;;;;;;;8.15;2.50;;;12.00;90.40;;;;;;6214625;23;20091;-69
2021/05/04 07:15:08;;;;;;;6.13;2.33;;;12.00;90.30;;;;;;6214971;23;20024;-67
2021/05/04 07:17:34;;;;;;;6.20;2.13;;;12.00;90.30;;;;;;6213546;23;20007;-67
2021/05/04 07:19:59;;;;;;;5.78;2.75;;;12.10;90.20;;;;;;6215415;23;20004;-67
2021/05/04 07:22:27;;;;;;;8.20;2.50;;;12.10;90.10;;;;;;6215411;23;20329;-67
2021/05/04 07:24:53;;;;;;;7.32;2.28;;;12.00;90.00;;;;;;6214201;23;20076;-66
2021/05/04 07:27:19;;;;;;;8.35;2.53;;;12.00;89.90;;;;;;6215233;23;20011;-67
2021/05/04 07:29:45;;;;;;;7.15;2.83;;;12.00;89.50;;;;;;6215165;23;20084;-67
2021/05/04 07:32:10;;;;;;;5.90;2.33;;;11.80;89.60;;;;;;6213840;23;20052;-66
2021/05/04 07:34:36;;;;;;;10.23;2.50;;;11.90;90.10;;;;;;6215218;23;20004;-67
2021/05/04 07:37:02;;;;;;;11.25;5.63;;;11.80;90.10;;;;;;6214928;23;20425;-67
2021/05/04 07:39:28;;;;;;;6.47;2.38;;;11.80;90.30;;;;;;6214572;23;20000;-67
2021/05/04 07:41:53;;;;;;;8.55;2.60;;;11.70;90.30;;;;;;6214410;23;20008;-67
2021/05/04 07:44:20;;;;;;;3.85;2.00;;;11.70;90.40;;;;;;6214522;23;20001;-67
2021/05/04 07:46:45;;;;;;;6.75;2.30;;;11.70;90.50;;;;;;6213846;23;19996;-68
2021/05/04 07:49:12;;;;;;;9.07;2.67;;;11.70;90.60;;;;;;6214088;23;20000;-67
2021/05/04 07:51:39;;;;;;;8.95;2.17;;;11.80;90.50;;;;;;6214943;23;20003;-67
2021/05/04 07:54:05;;;;;;;9.10;3.17;;;11.90;90.10;;;;;;6213947;23;20012;-67
2021/05/04 07:56:30;;;;;;;9.85;2.67;;;12.00;90.30;;;;;;6214775;23;20447;-66
2021/05/04 07:58:56;;;;;;;5.22;2.40;;;12.00;90.30;;;;;;6213973;23;20071;-67
2021/05/04 08:01:21;;;;;;;6.63;2.17;;;12.00;89.80;;;;;;6214959;23;20000;-67
2021/05/04 08:03:47;;;;;;;5.78;1.77;;;11.80;90.10;;;;;;6214564;23;20020;-70
2021/05/04 08:06:12;;;;;;;9.50;5.63;;;11.60;90.00;;;;;;6214169;23;20004;-67
2021/05/04 08:08:38;;;;;;;6.18;2.83;;;11.30;90.20;;;;;;6212922;23;20503;-69
2021/05/04 08:11:03;;;;;;;6.05;2.33;;;10.90;91.00;;;;;;6214782;23;20008;-69
2021/05/04 08:13:29;;;;;;;5.32;1.98;;;10.70;91.80;;;;;;6213809;23;20087;-67
2021/05/04 08:15:55;;;;;;;5.72;1.58;;;10.50;92.20;;;;;;6213565;23;20028;-67
2021/05/04 08:18:20;;;;;;;5.22;1.75;;;10.30;92.50;;;;;;6214371;23;20502;-68
2021/05/04 08:20:54;;;;;;;6.47;1.85;;;10.20;92.90;;;;;;6213596;23;20313;-69
2021/05/04 08:23:34;;;;;;;9.80;2.25;;;10.30;93.40;;;;;;6213498;23;20490;-69
2021/05/04 08:26:00;;;;;;;9.05;2.35;;;10.30;93.20;;;;;;6213043;23;20083;-68
2021/05/04 08:28:26;;;;;;;8.93;2.70;;;10.40;93.30;;;;;;6214059;23;20412;-67
2021/05/04 08:30:53;;;;;;;11.05;2.75;;;10.70;93.50;;;;;;6212637;23;20005;-66
2021/05/04 08:33:19;;;;;;;9.15;2.63;;;10.90;93.50;;;;;;6214353;23;20063;-71
2021/05/04 08:35:45;;;;;;;8.50;2.63;;;11.30;93.20;;;;;;6211945;23;20413;-68
2021/05/04 08:38:11;;;;;;;10.73;3.03;;;11.50;92.60;;;;;;6214373;23;20356;-70
2021/05/04 08:40:37;;;;;;;7.63;2.83;;;11.60;92.50;;;;;;6212674;23;20310;-68
2021/05/04 08:43:02;;;;;;;11.30;3.10;;;11.80;91.80;;;;;;6213545;23;20000;-67
2021/05/04 08:45:32;;;;;;;12.35;4.38;;;11.80;91.60;;;;;;6213022;23;20000;-68
2021/05/04 08:47:58;;;;;;;13.15;3.35;;;11.90;91.50;;;;;;6213433;23;20079;-67
2021/05/04 08:50:23;;;;;;;12.00;3.60;;;12.10;91.10;;;;;;6213069;23;20418;-68
2021/05/04 08:52:49;;;;;;;12.23;3.30;;;12.20;90.70;;;;;;6213918;23;20012;-67
2021/05/04 08:55:16;;;;;;;14.57;3.47;;;12.30;90.30;;;;;;6213859;23;20001;-68
2021/05/04 08:57:41;;;;;;;23.20;9.70;;;12.30;90.40;;;;;;6213797;23;20005;-68
2021/05/04 09:00:09;;;;;;;10.80;3.30;;;12.20;89.60;;;;;;6214180;23;20000;-70
2021/05/04 09:02:56;;;;;;;12.65;3.28;;;12.20;89.90;;;;;;6211490;23;20005;-69
2021/05/04 09:05:22;;;;;;;10.18;3.15;;;12.20;89.50;;;;;;6214584;23;20027;-67
2021/05/04 09:07:48;;;;;;;13.70;3.72;;;12.20;89.50;;;;;;6213980;23;20494;-68
2021/05/04 09:10:38;;;;;;;11.05;3.78;;;12.20;90.30;;;;;;6213586;23;20079;-68
2021/05/04 09:13:23;;;;;;;8.43;2.97;;;12.00;90.70;;;;;;6213813;23;20032;-69
2021/05/04 09:21:31;;;;;;;6.90;2.40;;;12.40;92.20;;;;;;6224512;23;20013;-67
2021/05/04 09:23:57;;;;;;;8.63;2.45;;;12.70;91.80;;;;;;6211719;23;20426;-67
2021/05/04 09:26:34;;;;;;;12.23;3.40;;;12.90;91.20;;;;;;6214445;23;20365;-68
2021/05/04 09:29:07;;;;;;;10.00;3.10;;;13.00;90.50;;;;;;6214465;23;20055;-69
2021/05/04 09:31:35;;;;;;;11.05;2.90;;;12.90;90.10;;;;;;6213118;23;20317;-67
2021/05/04 09:34:12;;;;;;;17.02;6.97;;;12.90;90.30;;;;;;6214758;23;20001;-67
2021/05/04 09:36:50;;;;;;;14.52;3.20;;;13.00;89.40;;;;;;6215890;23;20423;-68
2021/05/04 09:39:29;;;;;;;10.05;2.80;;;13.10;88.70;;;;;;6215145;23;20429;-68
2021/05/04 09:41:57;;;;;;;8.48;5.95;;;13.20;88.20;;;;;;6215580;23;20497;-67
2021/05/04 09:44:43;;;;;;;7.03;3.17;;;13.30;87.50;;;;;;6215418;23;20039;-69
2021/05/04 09:47:11;;;;;;;9.57;2.75;;;13.40;85.00;;;;;;6215933;23;20004;-67
2021/05/04 09:49:39;;;;;;;10.60;2.88;;;13.40;83.90;;;;;;6214738;23;20000;-69
2021/05/04 09:52:46;;;;;;;16.10;5.25;;;13.20;83.90;;;;;;6213160;23;20325;-68
2021/05/04 09:55:15;;;;;;;11.00;2.97;;;12.80;85.10;;;;;;6215740;23;20490;-66
2021/05/04 09:57:42;;;;;;;10.25;3.10;;;12.50;88.10;;;;;;6214154;23;19996;-68
2021/05/04 10:00:14;;;;;;;18.88;7.32;;;12.20;89.70;;;;;;6215335;23;20448;-68
2021/05/04 10:02:41;;;;;;;6.95;2.53;;;11.90;90.40;;;;;;6215677;23;20005;-67
2021/05/04 10:05:10;;;;;;;10.75;3.10;;;11.60;90.60;;;;;;6215903;23;20001;-70
2021/05/04 10:07:37;;;;;;;8.52;5.15;;;11.50;90.80;;;;;;6214798;23;20027;-69
2021/05/04 10:10:06;;;;;;;5.70;2.35;;;11.60;90.70;;;;;;6215586;23;20087;-67
2021/05/04 10:12:33;;;;;;;6.57;2.30;;;11.60;90.90;;;;;;6215286;23;20009;-69
2021/05/04 10:15:03;;;;;;;14.60;6.28;;;11.60;90.90;;;;;;6215597;23;20055;-71
2021/05/04 10:17:32;;;;;;;10.48;2.80;;;11.70;90.90;;;;;;6213910;23;20334;-70
2021/05/04 10:20:01;;;;;;;11.85;2.28;;;11.70;90.70;;;;;;6215036;23;20429;-66
2021/05/04 10:22:27;;;;;;;14.88;9.10;;;11.70;90.70;;;;;;6213090;23;20013;-67
2021/05/04 10:24:53;;;;;;;12.98;3.70;;;11.80;90.90;;;;;;6212836;23;20326;-69
2021/05/04 10:27:20;;;;;;;9.70;2.47;;;11.70;90.50;;;;;;6213856;23;20345;-69
2021/05/04 10:29:50;;;;;;;29.40;10.60;;;11.70;90.90;;;;;;6214224;23;20024;-69
2021/05/04 10:32:16;;;;;;;6.72;2.10;;;11.40;89.60;;;;;;6215109;23;20009;-68
2021/05/04 10:34:42;;;;;;;6.13;1.90;;;11.20;90.20;;;;;;6214243;23;20016;-69
2021/05/04 10:37:13;;;;;;;5.28;2.58;;;11.10;90.10;;;;;;6215233;23;20007;-70
2021/05/04 10:39:45;;;;;;;21.52;11.52;;;11.20;90.50;;;;;;6214996;23;20005;-70
2021/05/04 10:42:16;;;;;;;;;;;11.60;90.00;;;;;;6214911;23;20080;-71
2021/05/04 10:44:53;;;;;;;7.95;2.58;;;11.90;88.80;;;;;;6215099;23;19923;-70
2021/05/04 10:47:44;;;;;;;7.57;2.13;;;12.30;86.00;;;;;;6213579;23;20091;-70
2021/05/04 10:50:22;;;;;;;8.77;5.80;;;12.50;83.30;;;;;;6212806;23;20400;-69
2021/05/04 10:52:48;;;;;;;5.28;2.50;;;12.50;81.00;;;;;;6213312;23;20063;-70
2021/05/04 10:55:14;;;;;;;11.73;3.90;;;12.30;80.40;;;;;;6213974;23;20421;-71
2021/05/04 10:58:02;;;;;;;6.95;2.53;;;12.20;80.60;;;;;;6214477;23;20452;-69
2021/05/04 11:00:52;;;;;;;4.57;1.55;;;12.10;79.80;;;;;;6215716;23;20005;-67
2021/05/04 11:03:30;;;;;;;3.75;1.30;;;12.10;79.60;;;;;;6214672;23;20318;-67
2021/05/04 11:06:07;;;;;;;5.40;1.63;;;12.10;80.50;;;;;;6214964;23;20004;-68
2021/05/04 11:08:41;;;;;;;21.73;6.30;;;12.00;79.60;;;;;;6215557;23;19997;-68
2021/05/04 11:11:19;;;;;;;14.32;7.47;;;11.80;80.90;;;;;;6215734;23;20039;-68
2021/05/04 11:13:59;;;;;;;13.82;5.65;;;11.90;80.40;;;;;;6214898;23;20019;-67
2021/05/04 11:16:45;;;;;;;5.85;2.33;;;12.00;80.20;;;;;;6214732;23;19996;-69
2021/05/04 11:19:18;;;;;;;8.25;2.38;;;12.10;80.30;;;;;;6213658;23;20004;-69
2021/05/04 11:22:11;;;;;;;17.42;11.07;;;12.20;80.10;;;;;;6215364;23;20000;-68
2021/05/04 11:24:41;;;;;;;19.75;11.48;;;12.00;79.10;;;;;;6208260;23;20005;-68
2021/05/04 11:27:12;;;;;;;9.80;6.45;;;11.40;81.40;;;;;;6213540;23;20005;-68
2021/05/04 11:29:39;;;;;;;10.18;5.10;;;11.10;83.60;;;;;;6214921;23;20127;-68
2021/05/04 11:32:20;;;;;;;3.45;1.42;;;11.10;84.60;;;;;;6214436;23;20115;-68
2021/05/04 11:34:52;;;;;;;4.28;1.40;;;11.40;85.10;;;;;;6215034;23;20417;-68
2021/05/04 11:37:22;;;;;;;8.30;1.38;;;11.70;84.30;;;;;;6214551;23;20028;-68
2021/05/04 11:40:02;;;;;;;5.15;2.30;;;12.00;83.40;;;;;;6215037;23;20055;-68
2021/05/04 11:42:32;;;;;;;5.90;1.80;;;12.10;81.20;;;;;;6215244;23;20027;-71
2021/05/04 11:45:07;;;;;;;4.40;2.08;;;12.10;79.80;;;;;;6213800;23;20108;-68
2021/05/04 11:47:32;;;;;;;7.55;4.28;;;12.00;80.50;;;;;;6213022;23;20433;-67
2021/05/04 11:50:18;;;;;;;5.28;1.52;;;12.00;80.10;;;;;;6215348;23;20068;-67
2021/05/04 11:52:49;;;;;;;8.35;2.33;;;12.00;79.10;;;;;;6213946;23;20063;-68
2021/05/04 11:55:21;;;;;;;17.08;4.07;;;11.90;77.80;;;;;;6214772;23;20001;-68
2021/05/04 11:57:49;;;;;;;4.13;1.40;;;11.80;76.70;;;;;;6214357;23;20080;-67
2021/05/04 12:00:18;;;;;;;7.15;4.53;;;11.80;76.20;;;;;;6213057;23;20437;-66
2021/05/04 12:02:45;;;;;;;2.85;1.40;;;12.00;76.40;;;;;;6214718;23;20007;-66
2021/05/04 12:05:14;;;;;;;15.95;11.18;;;12.20;74.40;;;;;;6214027;23;20700;-68
2021/05/04 12:07:46;;;;;;;18.02;10.05;;;12.30;75.00;;;;;;6214423;23;20441;-67
2021/05/04 12:10:14;;;;;;;15.43;9.25;;;12.60;74.80;;;;;;6214869;23;20000;-67
2021/05/04 12:12:50;;;;;;;4.15;1.83;;;12.90;73.00;;;;;;6212225;23;20016;-67
2021/05/04 12:15:18;;;;;;;2.70;1.40;;;13.10;72.00;;;;;;6212994;23;20406;-67
2021/05/04 12:17:59;;;;;;;15.32;8.15;;;13.20;70.00;;;;;;6214688;23;20024;-68
2021/05/04 12:20:28;;;;;;;9.50;4.13;;;12.90;69.30;;;;;;6212592;23;20043;-68
2021/05/04 12:22:56;;;;;;;7.45;2.15;;;12.40;72.30;;;;;;6214498;23;20004;-67
2021/05/04 12:25:30;;;;;;;6.15;2.65;;;12.10;74.20;;;;;;6214669;23;20012;-67
2021/05/04 12:27:56;;;;;;;5.07;1.80;;;12.00;74.70;;;;;;6211442;23;20039;-67
2021/05/04 12:30:24;;;;;;;6.63;2.92;;;12.00;75.40;;;;;;6213166;23;20027;-68
2021/05/04 12:32:52;;;;;;;9.57;1.98;;;12.00;73.80;;;;;;6214224;23;20013;-67
2021/05/04 12:35:37;;;;;;;6.20;1.75;;;12.00;72.80;;;;;;6213662;23;20444;-68
2021/05/04 12:38:37;;;;;;;11.10;4.93;;;12.00;72.70;;;;;;6215048;23;20005;-67
2021/05/04 12:41:14;;;;;;;5.78;1.90;;;12.00;72.80;;;;;;6212925;23;20018;-67
2021/05/04 12:43:45;;;;;;;20.05;6.47;;;12.00;72.60;;;;;;6214414;23;20001;-67
2021/05/04 12:46:19;;;;;;;10.15;4.32;;;12.00;72.40;;;;;;6214475;23;20054;-67
2021/05/04 12:48:45;;;;;;;27.10;15.50;;;11.90;73.50;;;;;;6211822;23;20029;-68
2021/05/04 12:51:21;;;;;;;19.27;12.68;;;11.60;74.90;;;;;;6213010;23;20004;-67
2021/05/04 12:53:46;;;;;;;6.25;1.90;;;11.60;75.30;;;;;;6212566;23;20040;-68
2021/05/04 12:56:15;;;;;;;4.78;1.67;;;11.70;74.90;;;;;;6213415;23;19997;-68
2021/05/04 12:58:58;;;;;;;3.97;3.28;;;12.00;74.00;;;;;;6214122;23;20414;-67
2021/05/04 13:01:35;;;;;;;5.85;1.38;;;12.30;72.70;;;;;;6213620;23;20004;-67
2021/05/04 13:04:05;;;;;;;4.03;1.42;;;12.40;72.20;;;;;;6212622;23;20012;-67
2021/05/04 13:06:46;;;;;;;13.10;6.95;;;12.30;71.10;;;;;;6214037;23;20068;-68
2021/05/04 13:09:23;;;;;;;7.17;1.20;;;12.30;71.30;;;;;;6213526;23;20012;-68
2021/05/04 13:18:03;;;;;;;6.50;1.40;;;12.40;69.20;;;;;;6213401;23;20084;-68
2021/05/04 13:32:23;;;;;;;19.60;9.65;;;10.00;86.00;;;;;;6199792;23;20012;-68
2021/05/04 13:34:59;;;;;;;5.07;1.92;;;9.90;88.10;;;;;;6211250;23;20008;-68
2021/05/04 13:50:18;;;;;;;3.60;1.50;;;10.70;87.70;;;;;;6214550;23;20043;-68
2021/05/04 13:52:44;;;;;;;6.85;1.88;;;11.20;86.80;;;;;;6211304;23;20012;-69
2021/05/04 13:55:10;;;;;;;6.30;2.10;;;11.60;83.80;;;;;;6212370;23;20444;-70
2021/05/04 13:57:36;;;;;;;8.00;2.35;;;11.90;82.70;;;;;;6211029;23;20405;-68
2021/05/04 14:00:05;;;;;;;8.68;3.63;;;12.10;81.20;;;;;;6212309;23;20000;-69
2021/05/04 14:08:16;;;;;;;27.30;10.23;;;11.90;81.40;;;;;;6213603;23;20460;-67
2021/05/04 14:27:24;;;;;;;40.40;28.95;;;11.00;86.90;;;;;;6224487;23;20008;-69
2021/05/04 14:29:50;;;;;;;13.23;5.28;;;11.20;87.20;;;;;;6214955;23;20000;-69
2021/05/04 14:32:15;;;;;;;8.35;4.38;;;11.40;87.30;;;;;;6214092;23;20012;-68
2021/05/04 14:34:43;;;;;;;12.20;7.03;;;11.50;85.60;;;;;;6212235;23;20051;-69
2021/05/04 14:47:56;;;;;;;6.45;2.72;;;12.60;80.80;;;;;;6214065;23;20065;-69
2021/05/04 14:58:36;;;;;;;5.22;1.95;;;12.30;77.30;;;;;;6225513;23;20138;-67
2021/05/04 15:03:46;;;;;;;6.18;1.92;;;12.10;77.60;;;;;;6214577;23;20102;-75
2021/05/04 15:06:12;;;;;;;2.85;1.80;;;11.80;82.00;;;;;;6213460;23;20000;-75
2021/05/04 15:08:40;;;;;;;21.27;13.93;;;11.10;84.00;;;;;;6213962;23;20001;-73
2021/05/04 15:11:07;;;;;;;61.13;20.88;;;10.30;88.40;;;;;;6214181;23;20000;-73
2021/05/04 15:13:34;;;;;;;5.25;3.10;;;9.60;90.70;;;;;;6214336;23;20044;-77
2021/05/04 15:16:17;;;;;;;7.10;4.40;;;9.20;91.60;;;;;;6213804;23;20000;-71
2021/05/04 15:23:59;;;;;;;;;;;8.80;93.30;;;;;;6224998;23;20012;-71
2021/05/04 15:26:24;;;;;;;6.22;2.72;;;8.90;93.50;;;;;;6215347;23;20030;-71
2021/05/04 15:28:50;;;;;;;5.72;2.40;;;9.00;93.30;;;;;;6212799;23;20143;-72
2021/05/04 15:31:19;;;;;;;5.45;2.70;;;9.00;93.10;;;;;;6214489;23;20001;-75
2021/05/04 15:33:44;;;;;;;11.27;8.77;;;9.10;93.30;;;;;;6213140;23;20337;-75
2021/05/04 15:36:17;;;;;;;6.50;2.63;;;9.30;93.40;;;;;;6214035;23;19997;-74
2021/05/04 15:38:44;;;;;;;5.80;3.00;;;9.30;93.00;;;;;;6213183;23;20004;-75
2021/05/04 15:41:10;;;;;;;7.22;3.45;;;9.40;93.20;;;;;;6213146;23;20004;-76
2021/05/04 15:43:37;;;;;;;6.70;2.70;;;9.50;93.40;;;;;;6213983;23;20068;-73
2021/05/04 15:48:43;;;;;;;9.80;7.43;;;9.80;92.90;;;;;;6224738;23;20011;-73
2021/05/04 15:51:40;;;;;;;5.25;2.75;;;9.80;92.70;;;;;;6213854;23;20005;-73
2021/05/04 16:07:18;;;;;;;5.93;2.45;;;10.10;93.00;;;;;;6214461;23;20384;-73
2021/05/04 16:09:46;;;;;;;20.65;15.85;;;10.10;92.80;;;;;;6213118;23;20032;-73
2021/05/04 16:12:11;;;;;;;7.28;5.20;;;10.30;92.40;;;;;;6213827;23;20005;-73
2021/05/04 16:14:37;;;;;;;3.85;3.45;;;10.30;92.20;;;;;;6213548;23;20016;-72
2021/05/04 16:17:03;;;;;;;12.98;9.15;;;10.40;92.30;;;;;;6214217;23;20024;-67
2021/05/04 16:19:32;;;;;;;12.02;8.38;;;10.60;91.50;;;;;;6213633;23;20439;-66
2021/05/04 16:22:03;;;;;;;8.10;4.20;;;10.70;91.50;;;;;;6214693;23;19997;-66
2021/05/04 16:24:51;;;;;;;11.27;7.10;;;10.90;91.50;;;;;;6213008;23;20009;-66
2021/05/04 16:29:56;;;;;;;14.48;8.10;;;11.10;90.60;;;;;;6213364;23;20020;-69
2021/05/04 16:32:22;;;;;;;5.50;4.45;;;11.20;90.60;;;;;;6212891;23;20019;-67
2021/05/04 16:34:48;;;;;;;4.00;2.10;;;11.20;90.50;;;;;;6213900;23;20024;-66
2021/05/04 16:37:14;;;;;;;9.30;5.00;;;11.20;90.30;;;;;;6213505;23;20007;-69
2021/05/04 16:39:40;;;;;;;13.25;6.57;;;11.80;90.30;;;;;;6213398;23;20004;-67
2021/05/04 16:42:05;;;;;;;6.72;3.67;;;12.60;87.00;;;;;;6212627;23;20322;-68
2021/05/04 16:44:31;;;;;;;5.03;2.50;;;12.80;83.30;;;;;;6213574;23;20003;-71
2021/05/04 16:47:00;;;;;;;3.60;2.65;;;12.90;81.80;;;;;;6213548;23;20023;-71
2021/05/04 16:49:34;;;;;;;5.72;1.80;;;13.60;80.40;;;;;;6213852;23;20007;-73
2021/05/04 16:52:02;;;;;;;2.45;1.60;;;14.20;77.60;;;;;;6214008;23;20083;-70
2021/05/04 16:54:29;;;;;;;3.53;1.67;;;14.30;76.40;;;;;;6213541;23;20000;-69
2021/05/04 16:56:55;;;;;;;9.77;5.90;;;14.60;74.30;;;;;;6212285;23;20016;-68
2021/05/04 16:59:21;;;;;;;8.05;4.82;;;14.10;72.10;;;;;;6212187;23;20303;-70
2021/05/04 17:01:47;;;;;;;21.92;13.77;;;13.40;74.30;;;;;;6212069;23;20004;-67
2021/05/04 17:04:13;;;;;;;6.55;5.60;;;12.90;76.40;;;;;;6212532;23;20001;-69
2021/05/04 17:06:45;;;;;;;7.28;2.90;;;12.70;77.60;;;;;;6212205;23;20054;-69
2021/05/04 17:11:41;;;;;;;1.63;1.38;;;12.90;76.10;;;;;;6214403;23;20012;-70
2021/05/04 17:14:08;;;;;;;2.75;1.40;;;12.60;76.00;;;;;;6211195;23;20463;-66
2021/05/04 17:16:33;;;;;;;2.45;1.77;;;12.20;78.00;;;;;;6212913;23;20004;-67
2021/05/04 17:19:00;;;;;;;2.50;1.63;;;11.90;79.40;;;;;;6211695;23;20012;-67
2021/05/04 17:21:26;;;;;;;4.57;2.50;;;11.70;79.90;;;;;;6213574;23;20000;-65
2021/05/04 17:23:52;;;;;;;5.20;1.90;;;11.50;81.10;;;;;;6213929;23;20032;-69
2021/05/04 17:26:17;;;;;;;3.63;2.40;;;11.40;82.40;;;;;;6214735;23;20368;-67
2021/05/04 17:28:44;;;;;;;4.55;1.90;;;11.50;83.00;;;;;;6207006;23;20771;-67
2021/05/04 17:31:10;;;;;;;4.38;2.70;;;11.90;81.70;;;;;;6210207;23;20005;-67
2021/05/04 17:33:35;;;;;;;4.30;1.98;;;12.20;80.70;;;;;;6209878;23;20321;-68
2021/05/04 17:36:01;;;;;;;6.53;2.63;;;12.30;80.70;;;;;;6208764;23;20007;-67
2021/05/04 17:38:30;;;;;;;5.90;2.35;;;12.10;80.50;;;;;;6209989;23;20460;-66
2021/05/04 17:40:58;;;;;;;2.58;1.70;;;11.90;81.10;;;;;;6208712;23;20011;-67
2021/05/04 17:43:24;;;;;;;5.50;2.17;;;11.70;81.50;;;;;;6208539;23;20422;-67
2021/05/04 17:45:50;;;;;;;4.72;2.35;;;11.50;82.70;;;;;;6209740;23;20015;-66
2021/05/04 17:48:15;;;;;;;4.80;1.80;;;11.30;84.20;;;;;;6207450;23;20091;-67
2021/05/04 17:50:41;;;;;;;3.65;2.00;;;11.50;83.20;;;;;;6209129;23;20079;-69
2021/05/04 17:53:07;;;;;;;7.03;2.83;;;11.50;82.40;;;;;;6209140;23;20012;-67
2021/05/04 17:55:32;;;;;;;4.70;2.38;;;11.40;82.60;;;;;;6210908;23;20004;-67
2021/05/04 17:57:58;;;;;;;8.13;4.40;;;11.40;82.90;;;;;;6208919;23;20052;-67
2021/05/04 18:00:25;;;;;;;7.05;3.58;;;11.30;83.10;;;;;;6211940;23;20004;-66
2021/05/04 18:02:52;;;;;;;7.07;2.60;;;11.10;83.40;;;;;;6211892;23;20001;-67
2021/05/04 18:05:19;;;;;;;8.13;3.17;;;11.00;83.60;;;;;;6210659;23;20032;-67
2021/05/04 18:07:45;;;;;;;5.95;3.13;;;10.90;84.50;;;;;;6211529;23;19997;-67
2021/05/04 18:10:14;;;;;;;6.15;2.20;;;10.90;84.50;;;;;;6209999;23;20075;-66
2021/05/04 18:21:02;;;;;;;3.35;1.77;;;10.60;85.10;;;;;;6210523;23;20337;-65
2021/05/04 18:23:29;;;;;;;4.63;1.70;;;10.50;84.90;;;;;;6211002;23;20007;-68
2021/05/04 18:25:55;;;;;;;12.50;7.53;;;10.40;85.30;;;;;;6209652;23;20001;-66
2021/05/04 18:28:21;;;;;;;4.50;1.80;;;10.30;85.30;;;;;;6183367;23;20013;-68
2021/05/04 18:30:51;;;;;;;4.97;2.10;;;10.20;85.10;;;;;;6210902;23;20075;-67
2021/05/04 18:33:22;;;;;;;4.20;1.92;;;10.10;85.50;;;;;;6210534;23;20008;-68
2021/05/04 19:10:28;;;;;;;2.80;1.30;;;9.70;84.30;;;;;;6179345;23;20035;-67
2021/05/04 19:24:11;;;;;;;9.18;8.27;;;9.80;85.60;;;;;;6210819;23;20023;-69
2021/05/04 19:29:31;;;;;;;4.30;2.85;;;9.70;86.40;;;;;;6209413;23;20020;-68
2021/05/04 19:41:46;;;;;;;2.97;2.67;;;9.40;86.60;;;;;;6211463;23;20071;-68
2021/05/04 20:02:28;;;;;;;4.93;2.38;;;8.60;90.40;;;;;;6210723;23;20055;-68
2021/05/04 20:07:38;;;;;;;3.85;3.22;;;8.60;90.50;;;;;;6210568;23;20047;-66
2021/05/04 20:10:15;;;;;;;4.03;1.97;;;8.60;90.80;;;;;;6210236;23;20016;-68
2021/05/04 20:12:41;;;;;;;4.13;1.65;;;8.60;90.70;;;;;;6209570;23;20619;-68
2021/05/04 20:15:08;;;;;;;2.97;1.45;;;8.70;90.60;;;;;;6212928;23;20013;-67
2021/05/04 20:17:36;;;;;;;3.95;1.30;;;8.70;90.60;;;;;;6213013;23;20723;-66
2021/05/04 20:20:09;;;;;;;2.97;1.50;;;8.80;90.70;;;;;;6213048;23;20417;-66
2021/05/04 20:22:35;;;;;;;2.25;1.45;;;8.80;90.60;;;;;;6214295;23;19996;-67
2021/05/04 20:25:00;;;;;;;8.63;7.78;;;8.80;90.70;;;;;;6213544;23;20001;-68
2021/05/04 20:27:26;;;;;;;2.88;1.90;;;8.80;90.80;;;;;;6214562;23;20441;-67
2021/05/04 20:29:51;;;;;;;3.38;2.05;;;8.80;90.90;;;;;;6214274;23;20432;-68
2021/05/04 20:32:17;;;;;;;4.00;1.88;;;8.70;91.00;;;;;;6213856;23;20007;-66
2021/05/04 20:34:49;;;;;;;2.97;1.73;;;8.60;91.10;;;;;;6214025;23;20041;-66
2021/05/04 20:37:15;;;;;;;8.93;2.13;;;8.60;91.20;;;;;;6214469;23;20004;-66
2021/05/04 20:39:43;;;;;;;8.40;4.40;;;8.50;91.40;;;;;;6211125;23;20420;-65
2021/05/04 20:42:09;;;;;;;4.38;1.73;;;8.50;91.40;;;;;;6213780;23;20008;-68
2021/05/04 20:44:36;;;;;;;3.13;1.92;;;8.40;91.80;;;;;;6212655;23;20005;-68
2021/05/04 20:47:01;;;;;;;4.95;1.77;;;8.50;91.80;;;;;;6213504;23;19998;-66
2021/05/04 20:49:27;;;;;;;63.50;42.47;;;8.50;91.60;;;;;;6214954;23;20007;-66
2021/05/04 20:51:53;;;;;;;3.83;1.40;;;8.60;91.50;;;;;;6214309;23;20054;-66
2021/05/04 20:54:23;;;;;;;7.88;2.90;;;8.60;91.40;;;;;;6214102;23;20027;-65
2021/05/04 20:56:48;;;;;;;6.32;1.90;;;8.60;91.40;;;;;;6212744;23;20417;-66
2021/05/04 20:59:14;;;;;;;3.70;2.00;;;8.70;91.30;;;;;;6213970;23;20001;-68
2021/05/04 21:01:39;;;;;;;3.58;1.70;;;8.70;91.40;;;;;;6212898;23;20005;-67
2021/05/04 21:04:05;;;;;;;6.15;2.70;;;8.70;91.40;;;;;;6213459;23;20079;-67
2021/05/04 21:06:38;;;;;;;3.28;2.05;;;8.70;91.30;;;;;;6213804;23;20004;-67
2021/05/04 21:09:08;;;;;;;5.13;2.20;;;8.80;91.30;;;;;;6214659;23;19996;-67
2021/05/04 21:14:15;;;;;;;5.25;2.47;;;8.80;91.30;;;;;;6221032;23;20099;-67
2021/05/04 21:16:42;;;;;;;5.43;1.90;;;8.90;91.30;;;;;;6214247;23;20027;-68
2021/05/04 21:19:17;;;;;;;9.45;5.82;;;8.90;91.20;;;;;;6214357;23;20005;-67
2021/05/04 21:24:30;;;;;;;6.78;2.00;;;8.90;90.90;;;;;;6214723;23;20028;-68
2021/05/04 21:29:28;;;;;;;5.65;1.63;;;8.90;90.90;;;;;;6225439;23;20004;-67
2021/05/04 21:31:53;;;;;;;1.95;1.65;;;8.70;91.00;;;;;;6214518;23;20083;-68
2021/05/04 21:34:23;;;;;;;1.88;1.35;;;8.50;91.20;;;;;;6214731;23;20024;-67
2021/05/04 21:36:58;;;;;;;5.22;2.92;;;8.40;91.40;;;;;;6215322;23;20429;-67
2021/05/04 21:39:24;;;;;;;16.02;12.85;;;8.20;91.70;;;;;;6215529;23;20456;-67
2021/05/04 21:41:50;;;;;;;1.83;1.30;;;8.10;91.90;;;;;;6215388;23;20000;-67
2021/05/04 21:44:15;;;;;;;2.92;2.72;;;8.00;92.20;;;;;;6214758;23;20445;-66
2021/05/04 21:46:41;;;;;;;3.28;2.05;;;8.00;92.50;;;;;;6214649;23;20011;-66
2021/05/04 21:49:07;;;;;;;2.80;1.05;;;7.90;92.40;;;;;;6215372;23;20027;-66
2021/05/04 21:51:33;;;;;;;0.98;0.85;;;7.80;92.40;;;;;;6216379;23;20004;-65
2021/05/04 21:53:59;;;;;;;2.20;1.08;;;7.70;92.60;;;;;;6216257;23;20396;-66
2021/05/04 21:56:25;;;;;;;0.82;0.80;;;7.60;92.70;;;;;;6215880;23;20051;-65
2021/05/04 21:58:50;;;;;;;2.75;0.95;;;7.50;92.80;;;;;;6216084;23;20012;-68
2021/05/04 22:01:16;;;;;;;1.73;1.10;;;7.50;92.90;;;;;;6214460;23;20004;-66
2021/05/04 22:03:42;;;;;;;1.25;1.05;;;7.40;93.00;;;;;;6215214;23;20421;-66
2021/05/04 22:06:08;;;;;;;5.03;1.65;;;7.40;93.10;;;;;;6215795;23;20004;-67
2021/05/04 22:08:33;;;;;;;4.15;1.40;;;7.40;93.20;;;;;;6215940;23;19997;-67
2021/05/04 22:11:00;;;;;;;3.72;1.20;;;7.30;93.20;;;;;;6215387;23;20066;-66
2021/05/04 22:13:30;;;;;;;4.40;1.23;;;7.30;93.40;;;;;;6216267;23;20088;-67
2021/05/04 22:16:19;;;;;;;3.50;1.38;;;7.20;93.40;;;;;;6215874;23;20066;-67
2021/05/04 22:29:46;;;;;;;3.30;1.75;;;7.50;93.90;;;;;;6216183;23;20019;-65
2021/05/04 22:35:06;;;;;;;4.40;2.10;;;7.70;93.80;;;;;;6215458;23;20432;-64
2021/05/04 22:37:35;;;;;;;4.68;1.70;;;7.90;93.70;;;;;;6215973;23;20025;-66
2021/05/04 22:40:15;;;;;;;6.10;1.90;;;7.90;93.60;;;;;;6214846;23;20001;-66
2021/05/04 22:46:19;;;;;;;8.13;2.08;;;8.00;93.50;;;;;;6134396;23;20093;-65
2021/05/04 23:18:48;;;;;;;;;;;8.20;92.90;;;;;;6226353;23;20429;-66
2021/05/04 23:21:17;;;;;;;6.07;2.10;;;8.20;92.90;;;;;;6214726;23;19994;-66